Time;durP1;ratioP1;P1;durP2;ratioP2;P2;SDS_P1;SDS_P2;PMS_P1;PMS_P2;Temp;Humidity;BMP_temperature;BMP_pressure;BME280_temperature;BME280_humidity;BME280_pressure;Samples;Min_cycle;Max_cycle;Signal;HPM_P1;HPM_P2
2022/02/17 00:00:28;;;;;;;;;0.25;0.00;;;;;13.83;83.43;99873.53;4940163;28;45303;-69
2022/02/17 00:02:53;;;;;;;;;0.00;0.00;;;;;13.81;83.08;99862.22;4938742;28;47163;-69
2022/02/17 00:05:20;;;;;;;;;1.00;0.00;;;;;13.81;83.00;99862.22;4938748;28;45398;-70
2022/02/17 00:07:47;;;;;;;;;0.00;0.00;;;;;13.85;82.98;99862.84;4940166;28;45389;-68
2022/02/17 00:10:13;;;;;;;;;0.00;0.00;;;;;13.86;82.91;99852.19;4939915;28;45624;-68
2022/02/17 00:12:40;;;;;;;;;0.00;0.00;;;;;13.88;82.69;99870.59;4938950;28;47730;-69
2022/02/17 00:15:06;;;;;;;;;0.00;0.00;;;;;13.90;82.72;99870.50;4939538;28;45212;-67
2022/02/17 00:17:32;;;;;;;;;0.00;0.00;;;;;13.86;83.09;99852.19;4939580;28;45255;-70
2022/02/17 00:19:57;;;;;;;;;0.00;0.00;;;;;13.86;83.25;99848.69;4939599;28;45248;-64
2022/02/17 00:22:23;;;;;;;;;0.00;0.00;;;;;13.84;83.54;99822.38;4937445;28;46592;-68
2022/02/17 00:24:48;;;;;;;;;0.00;0.00;;;;;13.86;83.58;99859.25;4937807;28;45673;-68
2022/02/17 00:27:14;;;;;;;;;0.00;0.00;;;;;13.81;83.92;99869.28;4939176;28;45387;-69
2022/02/17 00:29:40;;;;;;;;;0.00;0.00;;;;;13.81;84.05;99885.16;4938108;28;45272;-69
2022/02/17 00:32:07;;;;;;;;;0.00;0.00;;;;;13.78;85.37;99886.19;4939127;28;45487;-70
2022/02/17 00:34:32;;;;;;;;;0.00;0.00;;;;;13.68;86.50;99896.50;4939003;28;45314;-72
2022/02/17 00:36:58;;;;;;;;;0.00;0.00;;;;;13.60;87.40;99898.81;4938899;28;45425;-70
2022/02/17 00:39:23;;;;;;;;;0.00;0.00;;;;;13.49;87.72;99886.25;4939074;28;45531;-72
2022/02/17 00:41:50;;;;;;;;;0.00;0.00;;;;;13.38;88.02;99905.41;4938571;28;46520;-69
2022/02/17 00:44:15;;;;;;;;;0.00;0.00;;;;;13.35;88.27;99915.31;4938738;28;45253;-69
2022/02/17 00:46:41;;;;;;;;;1.00;0.00;;;;;13.21;88.27;99903.81;4938740;28;45267;-70
2022/02/17 00:49:06;;;;;;;;;0.00;0.00;;;;;13.28;88.45;99926.25;4939360;28;45580;-70
2022/02/17 00:51:33;;;;;;;;;0.00;0.00;;;;;13.28;88.56;99928.06;4938824;28;45353;-70
2022/02/17 00:53:59;;;;;;;;;0.00;0.00;;;;;13.27;88.34;99935.13;4938482;28;45330;-68
2022/02/17 00:56:24;;;;;;;;;0.00;0.00;;;;;13.26;88.66;99949.28;4938588;28;45317;-67
2022/02/17 00:58:49;;;;;;;;;0.00;0.00;;;;;13.24;88.48;99940.59;4937372;28;45406;-68
2022/02/17 01:01:15;;;;;;;;;0.00;0.00;;;;;13.27;88.45;99945.69;4938388;28;46795;-69
2022/02/17 01:03:40;;;;;;;;;0.00;0.00;;;;;13.27;88.14;99943.06;4938937;28;45893;-68
2022/02/17 01:06:06;;;;;;;;;0.00;0.00;;;;;13.29;88.22;99938.53;4937222;28;45339;-69
2022/02/17 01:08:31;;;;;;;;;0.00;0.00;;;;;13.30;88.33;99971.91;4937687;28;45504;-68
2022/02/17 01:10:57;;;;;;;;;0.00;0.00;;;;;13.30;88.43;99955.25;4937961;28;45475;-67
2022/02/17 01:13:23;;;;;;;;;0.00;0.00;;;;;13.30;88.92;99960.53;4937956;28;45475;-69
2022/02/17 01:15:49;;;;;;;;;1.00;0.00;;;;;13.26;89.02;99951.09;4938349;28;45334;-70
2022/02/17 01:18:15;;;;;;;;;0.00;0.00;;;;;13.30;88.73;99955.25;4938521;28;45373;-67
2022/02/17 01:20:41;;;;;;;;;0.00;0.00;;;;;13.28;88.53;99955.31;4938364;28;45418;-69
2022/02/17 01:23:10;;;;;;;;;0.00;0.00;;;;;13.29;88.57;99943.81;4938266;28;45459;-69
2022/02/17 01:25:35;;;;;;;;;0.00;0.00;;;;;13.27;88.67;99955.44;4938419;28;45448;-70
2022/02/17 01:28:01;;;;;;;;;0.00;0.00;;;;;13.24;88.41;99951.16;4938556;28;45546;-70
2022/02/17 01:30:27;;;;;;;;;0.00;0.00;;;;;13.26;87.96;99966.94;4938350;28;46444;-66
2022/02/17 01:32:52;;;;;;;;;0.00;0.00;;;;;13.24;87.96;99988.16;4938079;28;45418;-65
2022/02/17 01:35:19;;;;;;;;;0.00;0.00;;;;;13.24;87.25;99993.44;4938404;28;45425;-67
2022/02/17 01:37:46;;;;;;;;;0.75;0.00;;;;;13.23;87.76;99991.72;4938379;28;45274;-63
2022/02/17 01:40:12;;;;;;;;;0.50;0.00;;;;;13.24;88.16;100001.34;4938209;28;45297;-63
2022/02/17 01:42:38;;;;;;;;;0.00;0.00;;;;;13.24;87.70;100016.34;4938177;28;45436;-69
2022/02/17 01:45:05;;;;;;;;;0.00;0.00;;;;;13.23;87.04;100022.56;4937976;28;45257;-68
2022/02/17 01:47:30;;;;;;;;;0.00;0.00;;;;;13.22;86.87;100021.72;4937343;28;45409;-68
2022/02/17 01:49:56;;;;;;;;;0.00;0.00;;;;;13.23;86.78;100020.78;4938243;28;46457;-71
2022/02/17 01:52:23;;;;;;;;;0.50;0.00;;;;;13.21;86.71;100017.38;4937925;28;45302;-70
2022/02/17 01:54:48;;;;;;;;;1.00;0.00;;;;;13.17;85.84;99999.16;4938153;28;45472;-67
2022/02/17 01:57:23;;;;;;;;;2.00;0.00;;;;;13.19;83.80;100015.75;4938200;28;45564;-68
2022/02/17 01:59:49;;;;;;;;;3.50;0.00;;;;;13.15;82.58;100028.31;4936622;28;47739;-64
2022/02/17 02:02:15;;;;;;;;;0.00;0.00;;;;;13.19;82.85;100003.41;4937683;28;45366;-66
2022/02/17 02:04:41;;;;;;;;;2.50;0.00;;;;;13.23;82.40;100028.69;4938243;28;45286;-68
2022/02/17 02:07:07;;;;;;;;;0.00;0.00;;;;;13.25;82.17;100032.09;4938217;28;45383;-69
2022/02/17 02:09:33;;;;;;;;;0.00;0.00;;;;;13.27;81.53;100039.94;4937644;28;45347;-67
2022/02/17 02:11:58;;;;;;;;;1.50;1.00;;;;;13.21;80.30;100021.78;4937221;28;45358;-67
2022/02/17 02:14:24;;;;;;;;;2.25;0.00;;;;;13.22;79.09;100028.78;4936142;28;45275;-66
2022/02/17 02:16:52;;;;;;;;;2.50;0.50;;;;;13.15;76.87;100052.09;4937466;28;45306;-68
2022/02/17 02:19:21;;;;;;;;;2.75;0.75;;;;;13.08;75.05;100059.50;4935862;28;46147;-66
2022/02/17 02:21:46;;;;;;;;;2.75;1.00;;;;;12.99;74.60;100049.50;4937147;28;45464;-69
2022/02/17 02:24:12;;;;;;;;;3.50;1.50;;;;;12.94;74.50;100046.28;4936462;28;45415;-69
2022/02/17 02:26:37;;;;;;;;;1.00;1.00;;;;;12.89;73.59;100054.47;4937639;28;45546;-63
2022/02/17 02:29:03;;;;;;;;;4.00;1.00;;;;;12.81;73.36;100038.22;4937053;28;46434;-66
2022/02/17 02:31:28;;;;;;;;;3.25;1.00;;;;;12.77;73.11;100040.19;4936977;28;45267;-66
2022/02/17 02:33:54;;;;;;;;;1.50;1.00;;;;;12.71;73.35;100033.47;4937121;28;45377;-66
2022/02/17 02:36:19;;;;;;;;;1.00;1.00;;;;;12.65;73.00;100025.06;4936059;28;45366;-67
2022/02/17 02:38:44;;;;;;;;;0.00;0.00;;;;;12.62;73.77;100059.53;4937444;28;45360;-70
2022/02/17 02:41:11;;;;;;;;;5.25;2.25;;;;;12.56;74.56;100051.03;4937415;28;45399;-67
2022/02/17 02:43:37;;;;;;;;;3.25;1.50;;;;;12.54;75.20;100045.00;4937227;28;45336;-68
2022/02/17 02:46:04;;;;;;;;;1.25;1.25;;;;;12.56;75.89;100055.47;4937316;28;45326;-68
2022/02/17 02:48:29;;;;;;;;;1.50;1.00;;;;;12.59;76.40;100060.56;4937062;28;45361;-66
2022/02/17 02:50:55;;;;;;;;;1.75;0.50;;;;;12.66;76.33;100064.53;4936912;28;45367;-67
2022/02/17 02:53:20;;;;;;;;;3.25;1.00;;;;;12.71;76.29;100080.13;4937159;28;45187;-69
2022/02/17 02:55:47;;;;;;;;;1.25;1.00;;;;;12.75;75.85;100086.09;4936145;28;45426;-66
2022/02/17 02:58:14;;;;;;;;;1.75;1.25;;;;;12.77;74.02;100073.66;4935824;28;45431;-69
2022/02/17 03:00:41;;;;;;;;;1.00;1.00;;;;;12.77;72.56;100078.94;4936706;28;45452;-67
2022/02/17 03:03:07;;;;;;;;;3.00;1.00;;;;;12.77;70.37;100039.34;4937025;28;45359;-68
2022/02/17 03:05:32;;;;;;;;;1.00;1.00;;;;;12.77;68.80;100057.81;4937129;28;45277;-68
2022/02/17 03:07:58;;;;;;;;;3.50;1.75;;;;;12.74;69.45;100087.03;4936761;28;45709;-66
2022/02/17 03:10:23;;;;;;;;;3.00;1.00;;;;;12.73;69.16;100080.88;4936890;28;45421;-68
2022/02/17 03:12:49;;;;;;;;;3.00;1.75;;;;;12.73;68.74;100075.63;4936724;28;45409;-66
2022/02/17 03:15:15;;;;;;;;;8.25;2.25;;;;;12.76;68.57;100078.06;4937137;28;45596;-65
2022/02/17 03:17:40;;;;;;;;;6.50;4.00;;;;;12.74;66.65;100079.94;4936774;28;45433;-70
2022/02/17 03:20:09;;;;;;;;;2.00;1.00;;;;;12.77;66.85;100081.59;4936801;28;45437;-64
2022/02/17 03:22:36;;;;;;;;;2.00;0.00;;;;;12.76;65.73;100075.44;4937042;28;45451;-67
2022/02/17 03:25:03;;;;;;;;;2.50;2.50;;;;;12.76;67.14;100080.72;4937201;28;45505;-69
2022/02/17 03:27:29;;;;;;;;;2.50;0.50;;;;;12.74;67.20;100090.50;4936565;28;45525;-69
2022/02/17 03:29:54;;;;;;;;;4.00;2.00;;;;;12.68;66.57;100091.69;4936459;28;45266;-70
2022/02/17 03:32:20;;;;;;;;;5.75;3.50;;;;;12.63;64.64;100080.56;4935618;28;45247;-70
2022/02/17 03:34:45;;;;;;;;;7.50;3.00;;;;;12.53;65.43;100096.06;4935638;28;45601;-69
2022/02/17 03:37:11;;;;;;;;;2.00;2.00;;;;;12.46;64.86;100110.53;4936005;28;46196;-70
2022/02/17 03:39:36;;;;;;;;;2.75;2.75;;;;;12.36;63.33;100093.53;4934767;28;45304;-70
2022/02/17 03:42:03;;;;;;;;;3.00;2.00;;;;;12.33;62.64;100126.19;4936621;28;45269;-66
2022/02/17 03:44:28;;;;;;;;;6.25;1.75;;;;;12.32;64.08;100098.09;4936665;28;45176;-69
2022/02/17 03:46:54;;;;;;;;;3.75;3.00;;;;;12.24;63.40;100126.69;4936261;28;46105;-65
2022/02/17 03:49:19;;;;;;;;;7.00;3.25;;;;;12.18;63.50;100114.66;4936311;28;45517;-69
2022/02/17 03:51:45;;;;;;;;;5.50;2.00;;;;;12.19;62.97;100119.00;4935831;28;45440;-69
2022/02/17 03:54:10;;;;;;;;;13.75;6.00;;;;;12.12;62.84;100126.41;4936652;28;45662;-70
2022/02/17 03:56:35;;;;;;;;;6.25;4.00;;;;;12.10;63.53;100137.97;4935820;28;46467;-68
2022/02/17 03:59:01;;;;;;;;;6.75;5.25;;;;;12.12;63.83;100139.59;4935992;28;45339;-68
2022/02/17 04:01:27;;;;;;;;;1.50;1.50;;;;;12.16;63.37;100161.38;4936187;28;45385;-67
2022/02/17 04:03:53;;;;;;;;;6.00;4.00;;;;;12.16;63.86;100158.72;4936255;28;45465;-69
2022/02/17 04:06:18;;;;;;;;;6.75;2.00;;;;;12.14;63.59;100168.50;4935955;28;45342;-69
2022/02/17 04:08:44;;;;;;;;;4.25;3.50;;;;;12.15;63.86;100175.47;4935799;28;45364;-67
2022/02/17 04:11:09;;;;;;;;;10.50;2.25;;;;;12.12;64.12;100168.59;4936052;28;45904;-65
2022/02/17 04:13:35;;;;;;;;;8.75;4.00;;;;;12.12;64.76;100180.91;4935798;28;45533;-67
2022/02/17 04:16:00;;;;;;;;;4.75;3.00;;;;;12.17;65.35;100185.97;4935719;28;45433;-68
2022/02/17 04:18:26;;;;;;;;;4.50;2.00;;;;;12.15;65.05;100193.09;4935844;28;45484;-67
2022/02/17 04:20:51;;;;;;;;;6.25;4.50;;;;;12.16;63.93;100195.63;4934814;28;45405;-68
2022/02/17 04:23:17;;;;;;;;;7.75;2.75;;;;;12.15;63.91;100178.13;4935015;28;45597;-68
2022/02/17 04:25:42;;;;;;;;;11.00;3.00;;;;;12.19;63.45;100197.28;4934314;28;45386;-67
2022/02/17 04:28:07;;;;;;;;;6.75;3.00;;;;;12.17;62.87;100199.16;4935545;28;45513;-68
2022/02/17 04:30:33;;;;;;;;;8.50;4.50;;;;;12.11;62.30;100195.03;4935778;28;45235;-68
2022/02/17 04:33:03;;;;;;;;;4.00;3.50;;;;;12.07;61.53;100227.75;4936003;28;45243;-67
2022/02/17 04:35:29;;;;;;;;;2.25;2.25;;;;;11.97;60.80;100204.50;4935741;28;46267;-64
2022/02/17 04:37:54;;;;;;;;;4.25;3.25;;;;;11.96;61.00;100226.50;4935839;28;45322;-66
2022/02/17 04:40:20;;;;;;;;;7.00;5.75;;;;;11.91;60.20;100230.31;4936193;28;45300;-69
2022/02/17 04:42:45;;;;;;;;;9.00;4.00;;;;;11.86;61.02;100229.72;4936053;28;45192;-72
2022/02/17 04:45:11;;;;;;;;;15.25;7.00;;;;;11.82;60.58;100248.31;4938753;28;45296;-71
2022/02/17 04:47:36;;;;;;;;;10.75;4.25;;;;;11.75;60.88;100246.94;4939191;28;45429;-67
2022/02/17 04:50:03;;;;;;;;;13.75;6.00;;;;;11.72;61.18;100241.81;4939017;28;45255;-68
2022/02/17 04:52:29;;;;;;;;;6.00;4.00;;;;;11.67;60.28;100255.19;4939153;28;45241;-64
2022/02/17 04:54:54;;;;;;;;;13.00;6.25;;;;;11.65;61.10;100264.09;4938622;28;46081;-63
2022/02/17 04:57:19;;;;;;;;;12.75;6.25;;;;;11.61;61.06;100265.19;4938887;28;45482;-67
2022/02/17 04:59:45;;;;;;;;;7.25;4.25;;;;;11.56;60.85;100289.13;4938709;28;45357;-67
2022/02/17 05:02:10;;;;;;;;;7.75;4.25;;;;;11.52;61.44;100298.13;4938907;28;45626;-69
2022/02/17 05:04:37;;;;;;;;;9.50;3.00;;;;;11.47;60.98;100287.78;4938548;28;45913;-70
2022/02/17 05:07:03;;;;;;;;;6.00;4.75;;;;;11.40;60.95;100305.69;4938740;28;45409;-70
2022/02/17 05:09:28;;;;;;;;;16.00;5.25;;;;;11.39;61.22;100303.09;4938786;28;45457;-69
2022/02/17 05:11:54;;;;;;;;;10.50;4.00;;;;;11.36;60.89;100308.53;4937438;28;45502;-68
2022/02/17 05:14:19;;;;;;;;;9.00;6.50;;;;;11.31;60.64;100294.72;4938697;28;45373;-66
2022/02/17 05:16:44;;;;;;;;;10.00;7.00;;;;;11.30;60.46;100306.19;4938564;28;45319;-69
2022/02/17 05:19:10;;;;;;;;;9.75;6.00;;;;;11.27;59.96;100299.31;4938737;28;45270;-67
2022/02/17 05:21:36;;;;;;;;;13.00;5.00;;;;;11.27;59.80;100312.47;4938828;28;45334;-70
2022/02/17 05:24:01;;;;;;;;;15.00;4.75;;;;;11.28;60.15;100321.19;4938961;28;46319;-71
2022/02/17 05:26:26;;;;;;;;;10.50;4.75;;;;;11.29;60.69;100334.31;4938273;28;45306;-67
2022/02/17 05:28:52;;;;;;;;;12.50;4.25;;;;;11.28;60.32;100332.59;4938711;28;45272;-69
2022/02/17 05:31:17;;;;;;;;;12.00;4.75;;;;;11.31;59.63;100344.75;4937190;28;45586;-68
2022/02/17 05:33:43;;;;;;;;;10.75;6.25;;;;;11.29;59.07;100341.34;4937971;28;45729;-66
2022/02/17 05:36:08;;;;;;;;;9.50;5.00;;;;;11.26;59.46;100347.63;4938551;28;45346;-68
2022/02/17 05:38:33;;;;;;;;;10.25;6.75;;;;;11.24;59.75;100339.78;4938484;28;45196;-71
2022/02/17 05:40:59;;;;;;;;;10.50;4.25;;;;;11.19;59.08;100347.03;4938656;28;45599;-70
2022/02/17 05:43:24;;;;;;;;;8.75;4.75;;;;;11.17;59.26;100348.06;4937971;28;46421;-63
2022/02/17 05:45:50;;;;;;;;;12.75;6.00;;;;;11.14;59.02;100356.09;4938002;28;45422;-66
2022/02/17 05:48:15;;;;;;;;;9.25;5.00;;;;;11.06;59.02;100351.16;4937958;28;45487;-68
2022/02/17 05:50:40;;;;;;;;;9.25;5.00;;;;;11.04;59.23;100345.97;4937922;28;45592;-69
2022/02/17 05:53:06;;;;;;;;;12.50;5.75;;;;;11.02;58.97;100345.16;4937606;28;45494;-69
2022/02/17 05:55:31;;;;;;;;;10.75;5.00;;;;;10.98;58.76;100350.66;4937108;28;45342;-68
2022/02/17 05:57:57;;;;;;;;;7.75;4.75;;;;;10.98;59.55;100366.44;4937871;28;45339;-69
2022/02/17 06:00:22;;;;;;;;;13.50;9.00;;;;;10.93;59.86;100343.84;4938158;28;45445;-70
2022/02/17 06:02:48;;;;;;;;;14.00;6.00;;;;;10.89;59.86;100334.38;4937485;28;46260;-69
2022/02/17 06:05:16;;;;;;;;;10.25;3.75;;;;;10.88;60.12;100337.06;4937938;28;45326;-69
2022/02/17 06:07:42;;;;;;;;;18.50;7.50;;;;;10.85;59.92;100356.47;4936909;28;45248;-68
2022/02/17 06:10:08;;;;;;;;;14.00;7.75;;;;;10.84;60.26;100360.03;4938539;28;45595;-70
2022/02/17 06:12:44;;;;;;;;;14.25;7.50;;;;;10.80;60.91;100361.09;4937128;28;46086;-68
2022/02/17 06:15:12;;;;;;;;;16.75;5.25;;;;;10.78;60.87;100363.78;4952027;28;45375;-65
2022/02/17 06:17:37;;;;;;;;;13.50;7.25;;;;;10.77;61.24;100380.50;4937644;28;45414;-69
2022/02/17 06:20:07;;;;;;;;;11.00;6.50;;;;;10.76;61.87;100384.03;4937883;28;45596;-69
2022/02/17 06:22:33;;;;;;;;;10.00;6.75;;;;;10.80;61.81;100374.25;4937417;28;46382;-67
2022/02/17 06:24:58;;;;;;;;;11.50;5.50;;;;;10.80;61.82;100372.47;4937325;28;45314;-67
2022/02/17 06:27:24;;;;;;;;;11.25;9.25;;;;;10.83;62.43;100366.22;4936374;28;45240;-69
2022/02/17 06:29:49;;;;;;;;;19.50;14.00;;;;;10.81;61.90;100368.06;4937468;28;45342;-70
2022/02/17 06:32:15;;;;;;;;;14.50;9.25;;;;;10.82;62.13;100375.88;4937130;28;46316;-67
2022/02/17 06:34:41;;;;;;;;;14.00;8.00;;;;;10.86;62.18;100383.63;4937120;28;45440;-68
2022/02/17 06:37:06;;;;;;;;;19.00;10.25;;;;;10.90;62.64;100401.00;4937379;28;45441;-67
2022/02/17 06:39:32;;;;;;;;;9.75;6.00;;;;;10.91;62.92;100403.56;4937673;28;45528;-68
2022/02/17 06:41:57;;;;;;;;;18.25;7.00;;;;;10.86;63.09;100413.44;4935917;28;48043;-69
2022/02/17 06:44:22;;;;;;;;;11.75;7.00;;;;;10.90;63.49;100436.06;4935933;28;45423;-66
2022/02/17 06:46:48;;;;;;;;;20.25;10.25;;;;;10.87;63.59;100433.59;4937512;28;45345;-70
2022/02/17 06:49:14;;;;;;;;;13.00;7.00;;;;;10.87;63.28;100422.19;4937270;28;45392;-68
2022/02/17 06:51:40;;;;;;;;;11.00;7.75;;;;;10.89;63.88;100437.00;4937095;28;47242;-67
2022/02/17 06:54:07;;;;;;;;;16.25;8.75;;;;;10.83;63.93;100416.22;4937590;28;45469;-70
2022/02/17 06:56:32;;;;;;;;;15.25;6.25;;;;;10.79;63.10;100420.75;4937776;28;45330;-70
2022/02/17 06:58:58;;;;;;;;;14.00;6.25;;;;;10.75;63.52;100418.34;4937495;28;45553;-68
2022/02/17 07:01:23;;;;;;;;;16.50;8.50;;;;;10.76;63.94;100430.56;4936762;28;46406;-69
2022/02/17 07:03:49;;;;;;;;;16.50;9.75;;;;;10.74;63.43;100430.63;4936647;28;45279;-67
2022/02/17 07:06:15;;;;;;;;;14.00;9.75;;;;;10.72;63.86;100431.63;4936074;28;45453;-68
2022/02/17 07:08:40;;;;;;;;;21.25;9.50;;;;;10.69;63.07;100431.75;4936494;28;45568;-71
2022/02/17 07:11:06;;;;;;;;;14.00;7.75;;;;;10.70;63.69;100451.88;4936295;28;45620;-70
2022/02/17 07:13:31;;;;;;;;;22.25;8.25;;;;;10.66;63.25;100459.91;4936415;28;45299;-69
2022/02/17 07:15:57;;;;;;;;;18.75;8.50;;;;;10.66;63.65;100465.16;4936820;28;45401;-69
2022/02/17 07:18:25;;;;;;;;;18.00;9.50;;;;;10.68;63.44;100469.50;4936655;28;45365;-69
2022/02/17 07:20:51;;;;;;;;;18.00;9.25;;;;;10.66;62.92;100473.06;4935910;28;46394;-69
2022/02/17 07:23:17;;;;;;;;;18.25;9.25;;;;;10.65;62.98;100458.19;4936269;28;45204;-70
2022/02/17 07:25:45;;;;;;;;;19.50;9.25;;;;;10.63;63.28;100473.19;4936703;28;45299;-68
2022/02/17 07:28:12;;;;;;;;;18.25;10.00;;;;;10.63;62.74;100482.84;4936874;28;45576;-69
2022/02/17 07:30:38;;;;;;;;;15.25;12.50;;;;;10.60;62.82;100497.00;4936353;28;45744;-67
2022/02/17 07:33:04;;;;;;;;;15.50;8.00;;;;;10.64;63.23;100487.19;4936442;28;45365;-67
2022/02/17 07:35:30;;;;;;;;;20.50;12.50;;;;;10.67;62.91;100500.19;4936401;28;45394;-68
2022/02/17 07:37:56;;;;;;;;;20.25;10.00;;;;;10.67;62.72;100497.56;4936968;28;45628;-68
2022/02/17 07:40:21;;;;;;;;;13.00;8.75;;;;;10.74;62.52;100506.06;4936481;28;45436;-68
2022/02/17 07:42:47;;;;;;;;;17.00;10.75;;;;;10.75;62.53;100511.25;4936367;28;45252;-67
2022/02/17 07:45:13;;;;;;;;;38.00;16.75;;;;;10.79;61.94;100519.88;4936480;28;45205;-65
2022/02/17 07:47:45;;;;;;;;;14.00;10.25;;;;;10.80;61.95;100516.34;4936142;28;45558;-67
2022/02/17 07:50:15;;;;;;;;;19.75;11.50;;;;;10.83;62.32;100537.25;4935019;28;45457;-67
2022/02/17 07:52:42;;;;;;;;;23.50;8.50;;;;;10.87;61.35;100523.06;4936324;28;45482;-68
2022/02/17 07:55:08;;;;;;;;;16.00;9.50;;;;;10.88;61.44;100524.75;4936216;28;45360;-63
2022/02/17 07:57:34;;;;;;;;;15.25;8.25;;;;;10.88;61.94;100510.72;4936500;28;45399;-69
2022/02/17 07:59:59;;;;;;;;;13.50;9.50;;;;;10.92;61.63;100520.22;4936680;28;45334;-70
2022/02/17 08:02:24;;;;;;;;;20.25;6.25;;;;;10.90;61.95;100530.81;4936126;28;45371;-68
2022/02/17 08:04:50;;;;;;;;;18.25;11.50;;;;;10.83;62.07;100510.94;4936109;28;45179;-69
2022/02/17 08:07:15;;;;;;;;;12.50;5.50;;;;;10.89;61.96;100525.59;4936230;28;45616;-64
2022/02/17 08:09:41;;;;;;;;;16.25;8.00;;;;;10.88;61.57;100531.78;4935800;28;46181;-67
2022/02/17 08:12:06;;;;;;;;;16.75;11.25;;;;;10.90;62.15;100529.94;4935939;28;45307;-66
2022/02/17 08:14:32;;;;;;;;;19.50;9.25;;;;;10.92;62.35;100542.13;4935774;28;45426;-66
2022/02/17 08:16:57;;;;;;;;;12.25;8.00;;;;;11.07;62.49;100540.59;4935104;28;45356;-70
2022/02/17 08:19:23;;;;;;;;;18.25;12.00;;;;;11.16;61.71;100539.38;4938472;28;45447;-68
2022/02/17 08:21:48;;;;;;;;;16.25;7.75;;;;;11.27;61.57;100557.34;4937879;28;45346;-69
2022/02/17 08:24:15;;;;;;;;;17.25;10.50;;;;;11.34;62.05;100552.66;4939359;28;45315;-66
2022/02/17 08:26:41;;;;;;;;;27.00;11.75;;;;;11.39;62.10;100567.34;4938507;28;45518;-71
2022/02/17 08:29:07;;;;;;;;;16.25;8.00;;;;;11.51;62.43;100580.88;4940110;28;46232;-75
2022/02/17 08:31:33;;;;;;;;;15.75;7.50;;;;;11.56;61.71;100586.81;4952550;28;45917;-62
2022/02/17 08:34:03;;;;;;;;;19.75;7.25;;;;;11.62;61.72;100601.47;4939205;28;45426;-73
2022/02/17 08:36:29;;;;;;;;;17.25;7.50;;;;;11.68;61.92;100590.69;4938912;28;45602;-68
2022/02/17 08:38:57;;;;;;;;;14.50;9.50;;;;;11.71;61.67;100587.03;4939370;28;45675;-69
2022/02/17 08:41:23;;;;;;;;;20.50;7.50;;;;;11.81;61.73;100593.59;4937439;28;45403;-68
2022/02/17 08:43:49;;;;;;;;;18.50;10.75;;;;;11.81;61.62;100598.88;4938926;28;45510;-68
2022/02/17 08:46:15;;;;;;;;;18.00;10.00;;;;;11.84;61.39;100599.59;4939172;28;45404;-69
2022/02/17 08:48:41;;;;;;;;;14.25;9.50;;;;;11.88;60.68;100605.59;4938796;28;46468;-69
2022/02/17 08:51:06;;;;;;;;;20.50;9.25;;;;;11.88;60.48;100602.94;4937557;28;45493;-70
2022/02/17 08:53:32;;;;;;;;;10.50;9.00;;;;;11.84;61.34;100615.44;4939369;28;45548;-67
2022/02/17 08:55:57;;;;;;;;;28.25;14.00;;;;;11.84;61.43;100593.47;4937711;28;45504;-69
2022/02/17 08:58:23;;;;;;;;;18.50;6.00;;;;;11.91;60.71;100615.16;4937376;28;47311;-66
2022/02/17 09:00:48;;;;;;;;;15.50;7.50;;;;;11.92;60.46;100607.16;4938797;28;45275;-67
2022/02/17 09:03:14;;;;;;;;;12.00;8.00;;;;;11.90;59.87;100610.81;4937365;28;45394;-68
2022/02/17 09:05:40;;;;;;;;;18.25;8.25;;;;;11.91;60.78;100599.34;4939082;28;45314;-68
2022/02/17 09:08:06;;;;;;;;;17.00;9.00;;;;;12.00;60.37;100614.75;4937062;28;47517;-69
2022/02/17 09:10:32;;;;;;;;;17.50;9.25;;;;;12.08;60.46;100612.63;4938930;28;45426;-71
2022/02/17 09:12:58;;;;;;;;;11.75;9.50;;;;;12.15;60.56;100615.81;4938623;28;45439;-68
2022/02/17 09:15:23;;;;;;;;;23.50;9.25;;;;;12.19;60.20;100621.81;4938440;28;45355;-66
2022/02/17 09:17:49;;;;;;;;;12.25;7.25;;;;;12.25;60.08;100603.94;4938230;28;45339;-67
2022/02/17 09:20:15;;;;;;;;;19.50;12.25;;;;;12.33;59.94;100598.28;4938614;28;45468;-67
2022/02/17 09:22:44;;;;;;;;;13.25;7.75;;;;;12.33;59.63;100623.81;4937411;28;45486;-68
2022/02/17 09:25:11;;;;;;;;;16.00;9.75;;;;;12.37;59.67;100628.03;4938567;28;45436;-71
2022/02/17 09:27:37;;;;;;;;;17.75;10.25;;;;;12.34;59.10;100622.91;4938334;28;46276;-68
2022/02/17 09:30:04;;;;;;;;;12.75;7.00;;;;;12.36;59.44;100632.44;4937408;28;45440;-67
2022/02/17 09:32:29;;;;;;;;;10.75;9.00;;;;;12.35;59.37;100638.63;4938251;28;45397;-66
2022/02/17 09:34:55;;;;;;;;;16.50;8.00;;;;;12.32;59.42;100636.16;4938361;28;45410;-68
2022/02/17 09:37:21;;;;;;;;;16.00;8.75;;;;;12.29;59.54;100636.28;4936560;28;46710;-65
2022/02/17 09:39:47;;;;;;;;;17.00;10.00;;;;;12.30;59.60;100650.34;4936746;28;45420;-66
2022/02/17 09:42:12;;;;;;;;;17.25;9.50;;;;;12.37;59.34;100660.53;4938013;28;45299;-69
2022/02/17 09:44:39;;;;;;;;;14.00;4.50;;;;;12.35;58.86;100662.38;4938057;28;45356;-68
2022/02/17 09:47:05;;;;;;;;;12.75;9.50;;;;;12.34;59.18;100671.22;4937739;28;45391;-69
2022/02/17 09:49:31;;;;;;;;;17.00;9.75;;;;;12.32;58.91;100664.31;4936402;28;45505;-67
2022/02/17 09:51:57;;;;;;;;;18.50;9.75;;;;;12.39;59.19;100673.66;4938247;28;45570;-67
2022/02/17 09:54:23;;;;;;;;;8.00;5.00;;;;;12.39;58.79;100682.41;4937040;28;45253;-69
2022/02/17 09:56:49;;;;;;;;;11.25;6.00;;;;;12.39;58.81;100668.38;4938448;28;45366;-68
2022/02/17 09:59:16;;;;;;;;;21.50;9.25;;;;;12.46;59.38;100672.44;4937974;28;45302;-69
2022/02/17 10:01:56;;;;;;;;;13.50;7.50;;;;;12.64;58.75;100685.69;4937946;28;45287;-66
2022/02/17 10:04:22;;;;;;;;;20.25;11.25;;;;;12.75;58.52;100687.84;4938241;28;45444;-68
2022/02/17 10:06:53;;;;;;;;;15.75;10.50;;;;;12.81;58.67;100698.94;4936219;28;46698;-68
2022/02/17 10:09:23;;;;;;;;;13.25;9.50;;;;;12.89;57.71;100681.88;4936128;28;45470;-71
2022/02/17 10:11:51;;;;;;;;;15.75;7.50;;;;;12.92;57.99;100687.00;4937811;28;45281;-70
2022/02/17 10:14:18;;;;;;;;;12.25;8.75;;;;;12.93;57.04;100686.06;4938164;28;45600;-68
2022/02/17 10:16:59;;;;;;;;;16.25;9.50;;;;;13.01;57.34;100678.63;4937947;28;45222;-64
2022/02/17 10:19:27;;;;;;;;;13.25;7.50;;;;;13.12;56.95;100693.97;4937823;28;45381;-68
2022/02/17 10:22:23;;;;;;;;;15.25;9.00;;;;;13.21;56.73;100703.22;4937916;28;45373;-68
2022/02/17 10:24:51;;;;;;;;;17.50;10.25;;;;;13.31;56.74;100707.13;4936720;28;45643;-70
2022/02/17 10:27:32;;;;;;;;;7.75;3.00;;;;;13.36;56.36;100707.75;4935389;28;48453;-69
2022/02/17 10:30:09;;;;;;;;;20.00;10.75;;;;;13.43;56.41;100711.84;4937314;28;45386;-71
2022/02/17 10:32:36;;;;;;;;;14.50;7.75;;;;;13.57;55.53;100705.84;4937699;28;45359;-68
2022/02/17 10:35:13;;;;;;;;;15.50;10.50;;;;;13.67;55.90;100714.16;4937730;28;45492;-69
2022/02/17 10:37:53;;;;;;;;;16.00;10.00;;;;;13.76;55.93;100715.47;4937727;28;45483;-69
2022/02/17 10:40:27;;;;;;;;;15.50;8.50;;;;;13.85;55.66;100724.72;4937182;28;45287;-69
2022/02/17 10:43:09;;;;;;;;;11.00;6.00;;;;;13.84;55.25;100723.88;4937368;28;45392;-69
2022/02/17 10:45:35;;;;;;;;;12.75;9.25;;;;;13.82;55.12;100724.88;4937697;28;45306;-66
2022/02/17 10:48:10;;;;;;;;;10.50;7.25;;;;;13.80;54.31;100716.19;4937003;28;45259;-68
2022/02/17 10:50:36;;;;;;;;;12.00;8.00;;;;;13.75;54.32;100721.69;4937622;28;45239;-66
2022/02/17 10:53:15;;;;;;;;;14.75;6.50;;;;;13.80;54.74;100726.75;4951766;28;45354;-71
2022/02/17 10:55:50;;;;;;;;;20.50;7.25;;;;;13.82;54.23;100738.97;4937553;28;45483;-66
2022/02/17 10:58:17;;;;;;;;;10.00;5.25;;;;;13.83;54.55;100751.25;4936652;28;45397;-71
2022/02/17 11:00:43;;;;;;;;;13.75;10.25;;;;;13.84;53.76;100755.63;4951576;28;45340;-70
2022/02/17 11:03:09;;;;;;;;;8.75;7.50;;;;;13.75;53.05;100740.19;4937342;28;45456;-68
2022/02/17 11:05:38;;;;;;;;;14.25;7.00;;;;;13.69;53.13;100767.81;4951577;28;45740;-66
2022/02/17 11:08:05;;;;;;;;;11.50;7.00;;;;;13.66;52.67;100743.31;4936584;28;46355;-71
2022/02/17 11:10:31;;;;;;;;;9.00;7.50;;;;;13.79;52.99;100748.84;4934732;28;45491;-71
2022/02/17 11:12:58;;;;;;;;;9.75;8.00;;;;;13.73;52.52;100769.38;4935053;28;45354;-70
2022/02/17 11:15:23;;;;;;;;;10.75;5.00;;;;;13.71;52.45;100778.28;4935076;28;45574;-69
2022/02/17 11:17:52;;;;;;;;;14.50;6.00;;;;;13.67;53.03;100769.69;4935725;28;45353;-71